sensor_id;sensor_type;location;lat;lon;timestamp;P1;durP1;ratioP1;P2;durP2;ratioP2
55037;SDS011;40937;53.594;10.034;2024-02-21T00:01:43;36.65;;;20.30;;
55037;SDS011;40937;53.594;10.034;2024-02-21T00:04:12;37.80;;;21.35;;
55037;SDS011;40937;53.594;10.034;2024-02-21T00:06:39;33.17;;;20.65;;
55037;SDS011;40937;53.594;10.034;2024-02-21T00:09:06;39.30;;;21.20;;
55037;SDS011;40937;53.594;10.034;2024-02-21T00:11:35;29.95;;;21.40;;
55037;SDS011;40937;53.594;10.034;2024-02-21T00:14:02;34.25;;;22.20;;
55037;SDS011;40937;53.594;10.034;2024-02-21T00:16:29;31.67;;;21.67;;
55037;SDS011;40937;53.594;10.034;2024-02-21T00:18:56;37.00;;;21.38;;
55037;SDS011;40937;53.594;10.034;2024-02-21T00:21:26;33.80;;;21.55;;
55037;SDS011;40937;53.594;10.034;2024-02-21T00:23:53;33.88;;;21.30;;
55037;SDS011;40937;53.594;10.034;2024-02-21T00:26:21;35.85;;;21.75;;
55037;SDS011;40937;53.594;10.034;2024-02-21T00:28:49;35.28;;;22.48;;
55037;SDS011;40937;53.594;10.034;2024-02-21T00:31:16;39.20;;;22.42;;
55037;SDS011;40937;53.594;10.034;2024-02-21T00:33:43;30.90;;;22.58;;
55037;SDS011;40937;53.594;10.034;2024-02-21T00:36:10;37.00;;;21.58;;
55037;SDS011;40937;53.594;10.034;2024-02-21T00:38:40;38.78;;;21.83;;
55037;SDS011;40937;53.594;10.034;2024-02-21T00:41:10;33.27;;;23.60;;
55037;SDS011;40937;53.594;10.034;2024-02-21T00:43:38;36.15;;;22.23;;
55037;SDS011;40937;53.594;10.034;2024-02-21T00:46:06;38.47;;;21.70;;
55037;SDS011;40937;53.594;10.034;2024-02-21T00:48:39;34.60;;;22.42;;
55037;SDS011;40937;53.594;10.034;2024-02-21T00:51:06;32.90;;;23.02;;
55037;SDS011;40937;53.594;10.034;2024-02-21T00:53:33;37.63;;;23.58;;
55037;SDS011;40937;53.594;10.034;2024-02-21T00:56:05;40.72;;;23.60;;
55037;SDS011;40937;53.594;10.034;2024-02-21T00:58:33;37.38;;;23.83;;
55037;SDS011;40937;53.594;10.034;2024-02-21T01:01:01;36.00;;;22.35;;
55037;SDS011;40937;53.594;10.034;2024-02-21T01:03:28;40.28;;;24.63;;
55037;SDS011;40937;53.594;10.034;2024-02-21T01:05:56;34.85;;;24.48;;
55037;SDS011;40937;53.594;10.034;2024-02-21T01:08:24;40.08;;;25.17;;
55037;SDS011;40937;53.594;10.034;2024-02-21T01:10:53;30.52;;;23.42;;
55037;SDS011;40937;53.594;10.034;2024-02-21T01:13:22;33.38;;;23.60;;
55037;SDS011;40937;53.594;10.034;2024-02-21T01:15:50;33.38;;;23.27;;
55037;SDS011;40937;53.594;10.034;2024-02-21T01:18:17;42.50;;;21.90;;
55037;SDS011;40937;53.594;10.034;2024-02-21T01:20:45;34.30;;;23.55;;
55037;SDS011;40937;53.594;10.034;2024-02-21T01:23:12;35.47;;;24.83;;
55037;SDS011;40937;53.594;10.034;2024-02-21T01:25:40;33.85;;;23.63;;
55037;SDS011;40937;53.594;10.034;2024-02-21T01:28:08;41.08;;;23.17;;
55037;SDS011;40937;53.594;10.034;2024-02-21T01:30:37;36.47;;;24.33;;
55037;SDS011;40937;53.594;10.034;2024-02-21T01:33:04;37.20;;;24.30;;
55037;SDS011;40937;53.594;10.034;2024-02-21T01:35:32;34.63;;;24.10;;
55037;SDS011;40937;53.594;10.034;2024-02-21T01:38:01;32.85;;;24.77;;
55037;SDS011;40937;53.594;10.034;2024-02-21T01:40:31;31.75;;;24.05;;
55037;SDS011;40937;53.594;10.034;2024-02-21T01:43:01;39.20;;;23.92;;
55037;SDS011;40937;53.594;10.034;2024-02-21T01:45:30;32.70;;;22.73;;
55037;SDS011;40937;53.594;10.034;2024-02-21T01:48:03;31.48;;;25.00;;
55037;SDS011;40937;53.594;10.034;2024-02-21T01:50:34;33.05;;;23.63;;
55037;SDS011;40937;53.594;10.034;2024-02-21T01:53:02;35.10;;;23.50;;
55037;SDS011;40937;53.594;10.034;2024-02-21T01:55:30;37.45;;;24.13;;
55037;SDS011;40937;53.594;10.034;2024-02-21T01:58:02;36.92;;;25.00;;
55037;SDS011;40937;53.594;10.034;2024-02-21T02:00:30;31.60;;;25.77;;
55037;SDS011;40937;53.594;10.034;2024-02-21T02:02:58;40.63;;;25.33;;
55037;SDS011;40937;53.594;10.034;2024-02-21T02:05:27;40.65;;;25.90;;
55037;SDS011;40937;53.594;10.034;2024-02-21T02:07:54;33.10;;;25.65;;
55037;SDS011;40937;53.594;10.034;2024-02-21T02:10:21;38.03;;;27.30;;
55037;SDS011;40937;53.594;10.034;2024-02-21T02:12:48;28.85;;;25.90;;
55037;SDS011;40937;53.594;10.034;2024-02-21T02:15:15;31.33;;;26.42;;
55037;SDS011;40937;53.594;10.034;2024-02-21T02:17:42;35.17;;;26.23;;
55037;SDS011;40937;53.594;10.034;2024-02-21T02:20:10;30.55;;;27.27;;
55037;SDS011;40937;53.594;10.034;2024-02-21T02:22:47;33.08;;;26.75;;
55037;SDS011;40937;53.594;10.034;2024-02-21T02:25:17;38.00;;;28.40;;
55037;SDS011;40937;53.594;10.034;2024-02-21T02:27:49;32.78;;;28.55;;
55037;SDS011;40937;53.594;10.034;2024-02-21T02:30:19;41.72;;;30.30;;
55037;SDS011;40937;53.594;10.034;2024-02-21T02:32:49;35.08;;;29.35;;
55037;SDS011;40937;53.594;10.034;2024-02-21T02:35:16;33.47;;;29.08;;
55037;SDS011;40937;53.594;10.034;2024-02-21T02:37:50;39.20;;;27.88;;
55037;SDS011;40937;53.594;10.034;2024-02-21T02:40:19;35.33;;;29.60;;
55037;SDS011;40937;53.594;10.034;2024-02-21T02:42:46;37.60;;;28.95;;
55037;SDS011;40937;53.594;10.034;2024-02-21T02:45:14;35.95;;;30.10;;
55037;SDS011;40937;53.594;10.034;2024-02-21T02:47:41;35.90;;;30.85;;
55037;SDS011;40937;53.594;10.034;2024-02-21T02:50:09;46.33;;;32.60;;
55037;SDS011;40937;53.594;10.034;2024-02-21T02:52:36;44.30;;;32.03;;
55037;SDS011;40937;53.594;10.034;2024-02-21T02:55:04;39.90;;;31.88;;
55037;SDS011;40937;53.594;10.034;2024-02-21T02:57:33;45.75;;;32.50;;
55037;SDS011;40937;53.594;10.034;2024-02-21T03:00:00;42.63;;;31.42;;
55037;SDS011;40937;53.594;10.034;2024-02-21T03:02:28;45.45;;;31.73;;
55037;SDS011;40937;53.594;10.034;2024-02-21T03:04:55;35.03;;;30.23;;
55037;SDS011;40937;53.594;10.034;2024-02-21T03:07:23;38.42;;;31.00;;
55037;SDS011;40937;53.594;10.034;2024-02-21T03:09:51;40.83;;;30.40;;
55037;SDS011;40937;53.594;10.034;2024-02-21T03:12:18;38.92;;;30.45;;
55037;SDS011;40937;53.594;10.034;2024-02-21T03:14:51;36.53;;;30.40;;
55037;SDS011;40937;53.594;10.034;2024-02-21T03:17:18;34.08;;;28.25;;
55037;SDS011;40937;53.594;10.034;2024-02-21T03:19:45;40.90;;;28.58;;
55037;SDS011;40937;53.594;10.034;2024-02-21T03:22:14;41.13;;;29.35;;
55037;SDS011;40937;53.594;10.034;2024-02-21T03:24:41;38.03;;;28.95;;
55037;SDS011;40937;53.594;10.034;2024-02-21T03:27:09;33.70;;;29.25;;
55037;SDS011;40937;53.594;10.034;2024-02-21T03:29:36;45.13;;;29.80;;
55037;SDS011;40937;53.594;10.034;2024-02-21T03:32:05;40.03;;;29.48;;
55037;SDS011;40937;53.594;10.034;2024-02-21T03:34:32;43.60;;;28.35;;
55037;SDS011;40937;53.594;10.034;2024-02-21T03:36:59;39.75;;;29.38;;
55037;SDS011;40937;53.594;10.034;2024-02-21T03:39:26;38.13;;;29.55;;
55037;SDS011;40937;53.594;10.034;2024-02-21T03:41:54;41.58;;;30.05;;
55037;SDS011;40937;53.594;10.034;2024-02-21T03:44:21;39.60;;;28.48;;
55037;SDS011;40937;53.594;10.034;2024-02-21T03:46:48;38.28;;;27.65;;
55037;SDS011;40937;53.594;10.034;2024-02-21T03:49:17;53.65;;;29.48;;
55037;SDS011;40937;53.594;10.034;2024-02-21T03:51:44;39.08;;;27.90;;
55037;SDS011;40937;53.594;10.034;2024-02-21T03:54:12;39.30;;;27.67;;
55037;SDS011;40937;53.594;10.034;2024-02-21T03:56:39;46.63;;;27.80;;
55037;SDS011;40937;53.594;10.034;2024-02-21T03:59:08;40.08;;;27.88;;
55037;SDS011;40937;53.594;10.034;2024-02-21T04:01:36;32.30;;;26.85;;
55037;SDS011;40937;53.594;10.034;2024-02-21T04:04:04;35.30;;;25.60;;
55037;SDS011;40937;53.594;10.034;2024-02-21T04:06:32;34.05;;;26.13;;
55037;SDS011;40937;53.594;10.034;2024-02-21T04:08:59;36.95;;;26.85;;
55037;SDS011;40937;53.594;10.034;2024-02-21T04:11:27;38.42;;;26.92;;
55037;SDS011;40937;53.594;10.034;2024-02-21T04:13:54;36.38;;;26.85;;
55037;SDS011;40937;53.594;10.034;2024-02-21T04:16:21;31.23;;;27.77;;
55037;SDS011;40937;53.594;10.034;2024-02-21T04:18:48;35.00;;;26.02;;
55037;SDS011;40937;53.594;10.034;2024-02-21T04:21:16;36.47;;;25.75;;
55037;SDS011;40937;53.594;10.034;2024-02-21T04:23:45;37.55;;;26.40;;
55037;SDS011;40937;53.594;10.034;2024-02-21T04:26:12;34.97;;;25.17;;
55037;SDS011;40937;53.594;10.034;2024-02-21T04:28:40;35.97;;;26.95;;
55037;SDS011;40937;53.594;10.034;2024-02-21T04:31:07;35.05;;;25.40;;
55037;SDS011;40937;53.594;10.034;2024-02-21T04:33:35;33.50;;;25.85;;
55037;SDS011;40937;53.594;10.034;2024-02-21T04:36:02;33.63;;;23.60;;
55037;SDS011;40937;53.594;10.034;2024-02-21T04:38:31;33.40;;;23.85;;
55037;SDS011;40937;53.594;10.034;2024-02-21T04:40:59;36.05;;;25.15;;
55037;SDS011;40937;53.594;10.034;2024-02-21T04:43:26;29.85;;;23.65;;
55037;SDS011;40937;53.594;10.034;2024-02-21T04:45:53;33.58;;;22.73;;
55037;SDS011;40937;53.594;10.034;2024-02-21T04:48:21;27.67;;;23.52;;
55037;SDS011;40937;53.594;10.034;2024-02-21T04:50:48;29.90;;;21.95;;
55037;SDS011;40937;53.594;10.034;2024-02-21T04:53:16;27.65;;;22.60;;
55037;SDS011;40937;53.594;10.034;2024-02-21T04:55:43;26.50;;;21.17;;
55037;SDS011;40937;53.594;10.034;2024-02-21T04:58:14;26.42;;;21.92;;
55037;SDS011;40937;53.594;10.034;2024-02-21T05:00:41;24.73;;;20.35;;
55037;SDS011;40937;53.594;10.034;2024-02-21T05:03:08;22.40;;;19.70;;
55037;SDS011;40937;53.594;10.034;2024-02-21T05:05:35;19.83;;;17.80;;
55037;SDS011;40937;53.594;10.034;2024-02-21T05:08:02;22.25;;;17.98;;
55037;SDS011;40937;53.594;10.034;2024-02-21T05:10:30;18.67;;;15.95;;
55037;SDS011;40937;53.594;10.034;2024-02-21T05:12:57;22.40;;;17.73;;
55037;SDS011;40937;53.594;10.034;2024-02-21T05:15:26;19.20;;;16.45;;
55037;SDS011;40937;53.594;10.034;2024-02-21T05:17:53;19.83;;;17.77;;
55037;SDS011;40937;53.594;10.034;2024-02-21T05:20:21;16.90;;;15.20;;
55037;SDS011;40937;53.594;10.034;2024-02-21T05:22:48;16.98;;;14.90;;
55037;SDS011;40937;53.594;10.034;2024-02-21T05:25:15;17.70;;;15.52;;
55037;SDS011;40937;53.594;10.034;2024-02-21T05:27:42;15.13;;;13.60;;
55037;SDS011;40937;53.594;10.034;2024-02-21T05:30:10;13.70;;;12.40;;
55037;SDS011;40937;53.594;10.034;2024-02-21T05:32:39;14.63;;;13.10;;
55037;SDS011;40937;53.594;10.034;2024-02-21T05:35:06;13.75;;;12.45;;
55037;SDS011;40937;53.594;10.034;2024-02-21T05:37:34;13.07;;;11.90;;
55037;SDS011;40937;53.594;10.034;2024-02-21T05:40:01;14.00;;;11.45;;
55037;SDS011;40937;53.594;10.034;2024-02-21T05:42:28;12.88;;;11.02;;
55037;SDS011;40937;53.594;10.034;2024-02-21T05:44:55;11.55;;;10.38;;
55037;SDS011;40937;53.594;10.034;2024-02-21T05:47:22;12.82;;;11.50;;
55037;SDS011;40937;53.594;10.034;2024-02-21T05:49:51;12.40;;;11.30;;
55037;SDS011;40937;53.594;10.034;2024-02-21T05:52:19;11.48;;;10.57;;
55037;SDS011;40937;53.594;10.034;2024-02-21T05:54:46;10.88;;;9.90;;
55037;SDS011;40937;53.594;10.034;2024-02-21T05:57:16;10.73;;;9.82;;
55037;SDS011;40937;53.594;10.034;2024-02-21T05:59:43;11.48;;;10.50;;
55037;SDS011;40937;53.594;10.034;2024-02-21T06:02:11;11.20;;;10.20;;
55037;SDS011;40937;53.594;10.034;2024-02-21T06:04:38;10.68;;;9.70;;
55037;SDS011;40937;53.594;10.034;2024-02-21T06:07:07;9.75;;;9.00;;
55037;SDS011;40937;53.594;10.034;2024-02-21T06:09:35;9.57;;;8.38;;
55037;SDS011;40937;53.594;10.034;2024-02-21T06:12:03;9.27;;;8.55;;
55037;SDS011;40937;53.594;10.034;2024-02-21T06:14:30;9.93;;;9.20;;
55037;SDS011;40937;53.594;10.034;2024-02-21T06:16:58;9.98;;;9.10;;
55037;SDS011;40937;53.594;10.034;2024-02-21T06:19:25;9.35;;;8.55;;
55037;SDS011;40937;53.594;10.034;2024-02-21T06:21:52;8.57;;;7.88;;
55037;SDS011;40937;53.594;10.034;2024-02-21T06:24:21;9.07;;;8.30;;
55037;SDS011;40937;53.594;10.034;2024-02-21T06:26:48;7.55;;;6.95;;
55037;SDS011;40937;53.594;10.034;2024-02-21T06:29:15;6.20;;;5.72;;
55037;SDS011;40937;53.594;10.034;2024-02-21T06:31:43;6.63;;;6.03;;
55037;SDS011;40937;53.594;10.034;2024-02-21T06:34:10;6.05;;;5.55;;
55037;SDS011;40937;53.594;10.034;2024-02-21T06:36:37;5.53;;;5.03;;
55037;SDS011;40937;53.594;10.034;2024-02-21T06:39:04;4.88;;;4.57;;
55037;SDS011;40937;53.594;10.034;2024-02-21T06:41:34;5.03;;;4.68;;
55037;SDS011;40937;53.594;10.034;2024-02-21T06:44:02;5.05;;;4.75;;
55037;SDS011;40937;53.594;10.034;2024-02-21T06:46:29;5.25;;;4.85;;
55037;SDS011;40937;53.594;10.034;2024-02-21T06:48:58;5.20;;;4.85;;
55037;SDS011;40937;53.594;10.034;2024-02-21T06:51:26;5.55;;;5.15;;
55037;SDS011;40937;53.594;10.034;2024-02-21T06:53:53;5.28;;;4.85;;
55037;SDS011;40937;53.594;10.034;2024-02-21T06:56:23;5.22;;;4.80;;
55037;SDS011;40937;53.594;10.034;2024-02-21T07:01:22;5.03;;;4.53;;
55037;SDS011;40937;53.594;10.034;2024-02-21T07:03:50;5.35;;;4.97;;
55037;SDS011;40937;53.594;10.034;2024-02-21T07:06:17;5.18;;;4.78;;
55037;SDS011;40937;53.594;10.034;2024-02-21T07:08:44;5.32;;;5.03;;
55037;SDS011;40937;53.594;10.034;2024-02-21T07:11:12;5.03;;;4.63;;
55037;SDS011;40937;53.594;10.034;2024-02-21T07:13:39;4.95;;;4.63;;
55037;SDS011;40937;53.594;10.034;2024-02-21T07:16:08;6.80;;;6.30;;
55037;SDS011;40937;53.594;10.034;2024-02-21T07:18:35;5.28;;;4.97;;
55037;SDS011;40937;53.594;10.034;2024-02-21T07:21:02;5.57;;;5.03;;
55037;SDS011;40937;53.594;10.034;2024-02-21T07:23:29;5.30;;;4.90;;
55037;SDS011;40937;53.594;10.034;2024-02-21T07:25:57;6.32;;;5.22;;
55037;SDS011;40937;53.594;10.034;2024-02-21T07:28:24;6.03;;;5.53;;
55037;SDS011;40937;53.594;10.034;2024-02-21T07:30:51;5.93;;;5.53;;
55037;SDS011;40937;53.594;10.034;2024-02-21T07:33:20;6.30;;;5.88;;
55037;SDS011;40937;53.594;10.034;2024-02-21T07:35:47;6.70;;;6.13;;
55037;SDS011;40937;53.594;10.034;2024-02-21T07:38:14;7.65;;;7.05;;
55037;SDS011;40937;53.594;10.034;2024-02-21T07:40:44;6.80;;;6.15;;
55037;SDS011;40937;53.594;10.034;2024-02-21T07:43:11;7.32;;;6.72;;
55037;SDS011;40937;53.594;10.034;2024-02-21T07:45:38;6.13;;;5.72;;
55037;SDS011;40937;53.594;10.034;2024-02-21T07:48:06;7.53;;;6.93;;
55037;SDS011;40937;53.594;10.034;2024-02-21T07:50:35;7.50;;;6.90;;
55037;SDS011;40937;53.594;10.034;2024-02-21T07:53:03;8.00;;;7.40;;
55037;SDS011;40937;53.594;10.034;2024-02-21T07:55:30;7.65;;;6.57;;
55037;SDS011;40937;53.594;10.034;2024-02-21T07:57:57;6.70;;;6.10;;
55037;SDS011;40937;53.594;10.034;2024-02-21T08:00:26;6.38;;;5.85;;
55037;SDS011;40937;53.594;10.034;2024-02-21T08:02:53;6.38;;;5.88;;
55037;SDS011;40937;53.594;10.034;2024-02-21T08:05:21;5.65;;;5.15;;
55037;SDS011;40937;53.594;10.034;2024-02-21T08:07:52;4.60;;;4.30;;
55037;SDS011;40937;53.594;10.034;2024-02-21T08:10:19;4.53;;;4.22;;
55037;SDS011;40937;53.594;10.034;2024-02-21T08:12:47;8.45;;;4.15;;
55037;SDS011;40937;53.594;10.034;2024-02-21T08:15:14;9.90;;;4.50;;
55037;SDS011;40937;53.594;10.034;2024-02-21T08:17:43;5.93;;;3.95;;
55037;SDS011;40937;53.594;10.034;2024-02-21T08:20:10;9.30;;;4.13;;
55037;SDS011;40937;53.594;10.034;2024-02-21T08:22:38;12.98;;;4.43;;
55037;SDS011;40937;53.594;10.034;2024-02-21T08:25:06;10.00;;;4.80;;
55037;SDS011;40937;53.594;10.034;2024-02-21T08:27:34;13.80;;;4.25;;
55037;SDS011;40937;53.594;10.034;2024-02-21T08:30:01;15.80;;;4.30;;
55037;SDS011;40937;53.594;10.034;2024-02-21T08:32:28;14.05;;;4.68;;
55037;SDS011;40937;53.594;10.034;2024-02-21T08:34:56;15.73;;;4.35;;
55037;SDS011;40937;53.594;10.034;2024-02-21T08:37:24;17.75;;;4.20;;
55037;SDS011;40937;53.594;10.034;2024-02-21T08:39:51;18.08;;;4.97;;
55037;SDS011;40937;53.594;10.034;2024-02-21T08:42:20;16.85;;;4.35;;
55037;SDS011;40937;53.594;10.034;2024-02-21T08:44:47;19.67;;;4.82;;
55037;SDS011;40937;53.594;10.034;2024-02-21T08:47:14;16.02;;;3.90;;
55037;SDS011;40937;53.594;10.034;2024-02-21T08:49:42;22.80;;;4.82;;
55037;SDS011;40937;53.594;10.034;2024-02-21T08:52:09;13.73;;;4.32;;
55037;SDS011;40937;53.594;10.034;2024-02-21T08:54:37;19.80;;;4.72;;
55037;SDS011;40937;53.594;10.034;2024-02-21T08:57:05;19.98;;;4.90;;
55037;SDS011;40937;53.594;10.034;2024-02-21T08:59:33;16.65;;;5.22;;
55037;SDS011;40937;53.594;10.034;2024-02-21T09:02:01;12.98;;;4.47;;
55037;SDS011;40937;53.594;10.034;2024-02-21T09:04:28;17.45;;;4.25;;
55037;SDS011;40937;53.594;10.034;2024-02-21T09:06:56;10.88;;;4.28;;
55037;SDS011;40937;53.594;10.034;2024-02-21T09:09:23;13.05;;;3.80;;
55037;SDS011;40937;53.594;10.034;2024-02-21T09:11:50;18.15;;;4.85;;
55037;SDS011;40937;53.594;10.034;2024-02-21T09:14:18;22.58;;;4.25;;
55037;SDS011;40937;53.594;10.034;2024-02-21T09:16:47;15.15;;;5.20;;
55037;SDS011;40937;53.594;10.034;2024-02-21T09:19:14;12.32;;;4.72;;
55037;SDS011;40937;53.594;10.034;2024-02-21T09:21:43;13.48;;;4.18;;
55037;SDS011;40937;53.594;10.034;2024-02-21T09:24:10;13.75;;;4.45;;
55037;SDS011;40937;53.594;10.034;2024-02-21T09:26:38;14.68;;;4.80;;
55037;SDS011;40937;53.594;10.034;2024-02-21T09:29:05;12.88;;;4.30;;
55037;SDS011;40937;53.594;10.034;2024-02-21T09:31:32;15.90;;;4.45;;
55037;SDS011;40937;53.594;10.034;2024-02-21T09:34:00;14.55;;;4.45;;
55037;SDS011;40937;53.594;10.034;2024-02-21T09:36:28;18.05;;;4.32;;
55037;SDS011;40937;53.594;10.034;2024-02-21T09:38:55;12.93;;;3.75;;
55037;SDS011;40937;53.594;10.034;2024-02-21T09:41:23;12.07;;;3.22;;
55037;SDS011;40937;53.594;10.034;2024-02-21T09:43:53;13.38;;;4.15;;
55037;SDS011;40937;53.594;10.034;2024-02-21T09:46:21;9.18;;;3.72;;
55037;SDS011;40937;53.594;10.034;2024-02-21T09:49:13;10.02;;;4.05;;
55037;SDS011;40937;53.594;10.034;2024-02-21T09:51:46;13.68;;;3.83;;
55037;SDS011;40937;53.594;10.034;2024-02-21T09:54:16;9.73;;;3.40;;
55037;SDS011;40937;53.594;10.034;2024-02-21T09:56:44;8.25;;;3.30;;
55037;SDS011;40937;53.594;10.034;2024-02-21T09:59:24;8.40;;;3.53;;
55037;SDS011;40937;53.594;10.034;2024-02-21T10:01:54;12.05;;;4.15;;
55037;SDS011;40937;53.594;10.034;2024-02-21T10:04:23;7.03;;;3.20;;
55037;SDS011;40937;53.594;10.034;2024-02-21T10:06:50;7.90;;;3.78;;
55037;SDS011;40937;53.594;10.034;2024-02-21T10:09:21;10.73;;;3.17;;
55037;SDS011;40937;53.594;10.034;2024-02-21T10:11:49;10.13;;;3.55;;
55037;SDS011;40937;53.594;10.034;2024-02-21T10:14:17;7.38;;;3.15;;
55037;SDS011;40937;53.594;10.034;2024-02-21T10:16:47;7.03;;;3.28;;
55037;SDS011;40937;53.594;10.034;2024-02-21T10:19:18;6.55;;;3.45;;
55037;SDS011;40937;53.594;10.034;2024-02-21T10:22:01;8.32;;;3.90;;
55037;SDS011;40937;53.594;10.034;2024-02-21T10:24:30;9.20;;;4.25;;
55037;SDS011;40937;53.594;10.034;2024-02-21T10:27:01;5.30;;;4.78;;
55037;SDS011;40937;53.594;10.034;2024-02-21T10:29:29;7.43;;;6.72;;
55037;SDS011;40937;53.594;10.034;2024-02-21T10:32:03;7.47;;;6.75;;
55037;SDS011;40937;53.594;10.034;2024-02-21T10:34:32;13.75;;;7.78;;
55037;SDS011;40937;53.594;10.034;2024-02-21T10:37:00;11.80;;;10.73;;
55037;SDS011;40937;53.594;10.034;2024-02-21T10:39:29;12.40;;;11.50;;
55037;SDS011;40937;53.594;10.034;2024-02-21T10:41:59;13.60;;;12.48;;
55037;SDS011;40937;53.594;10.034;2024-02-21T10:44:28;17.02;;;15.63;;
55037;SDS011;40937;53.594;10.034;2024-02-21T10:46:57;17.77;;;16.15;;
55037;SDS011;40937;53.594;10.034;2024-02-21T10:49:25;20.55;;;18.75;;
55037;SDS011;40937;53.594;10.034;2024-02-21T10:51:54;20.85;;;18.90;;
55037;SDS011;40937;53.594;10.034;2024-02-21T10:54:43;21.58;;;19.75;;
55037;SDS011;40937;53.594;10.034;2024-02-21T10:59:40;26.42;;;20.63;;
55037;SDS011;40937;53.594;10.034;2024-02-21T11:02:07;24.00;;;20.52;;
55037;SDS011;40937;53.594;10.034;2024-02-21T11:04:34;23.50;;;21.13;;
55037;SDS011;40937;53.594;10.034;2024-02-21T11:07:03;21.85;;;19.80;;
55037;SDS011;40937;53.594;10.034;2024-02-21T11:09:32;24.20;;;20.98;;
55037;SDS011;40937;53.594;10.034;2024-02-21T11:12:01;26.08;;;21.73;;
55037;SDS011;40937;53.594;10.034;2024-02-21T11:14:30;26.88;;;20.80;;
55037;SDS011;40937;53.594;10.034;2024-02-21T11:17:01;23.25;;;20.20;;
55037;SDS011;40937;53.594;10.034;2024-02-21T11:19:29;23.67;;;19.23;;
55037;SDS011;40937;53.594;10.034;2024-02-21T11:21:57;20.77;;;18.20;;
55037;SDS011;40937;53.594;10.034;2024-02-21T11:24:27;19.90;;;17.92;;
55037;SDS011;40937;53.594;10.034;2024-02-21T11:26:56;22.83;;;17.48;;
55037;SDS011;40937;53.594;10.034;2024-02-21T11:29:25;23.55;;;17.08;;
55037;SDS011;40937;53.594;10.034;2024-02-21T11:31:53;19.45;;;16.35;;
55037;SDS011;40937;53.594;10.034;2024-02-21T11:34:20;19.63;;;16.13;;
55037;SDS011;40937;53.594;10.034;2024-02-21T11:36:48;18.63;;;15.43;;
55037;SDS011;40937;53.594;10.034;2024-02-21T11:39:22;19.50;;;15.40;;
55037;SDS011;40937;53.594;10.034;2024-02-21T11:42:00;17.02;;;15.10;;
55037;SDS011;40937;53.594;10.034;2024-02-21T11:44:30;20.10;;;14.30;;
55037;SDS011;40937;53.594;10.034;2024-02-21T11:46:58;18.70;;;15.10;;
55037;SDS011;40937;53.594;10.034;2024-02-21T11:49:25;18.92;;;13.52;;
55037;SDS011;40937;53.594;10.034;2024-02-21T11:51:58;16.02;;;13.30;;
55037;SDS011;40937;53.594;10.034;2024-02-21T11:54:26;16.08;;;12.20;;
55037;SDS011;40937;53.594;10.034;2024-02-21T11:56:53;15.98;;;12.90;;
55037;SDS011;40937;53.594;10.034;2024-02-21T11:59:21;20.25;;;13.30;;
55037;SDS011;40937;53.594;10.034;2024-02-21T12:01:49;16.50;;;12.82;;
55037;SDS011;40937;53.594;10.034;2024-02-21T12:04:17;17.83;;;12.50;;
55037;SDS011;40937;53.594;10.034;2024-02-21T12:06:45;13.77;;;12.38;;
55037;SDS011;40937;53.594;10.034;2024-02-21T12:09:13;16.63;;;11.95;;
55037;SDS011;40937;53.594;10.034;2024-02-21T12:11:41;15.25;;;13.45;;
55037;SDS011;40937;53.594;10.034;2024-02-21T12:14:09;15.75;;;13.02;;
55037;SDS011;40937;53.594;10.034;2024-02-21T12:16:37;14.18;;;12.65;;
55037;SDS011;40937;53.594;10.034;2024-02-21T12:19:05;15.00;;;13.52;;
55037;SDS011;40937;53.594;10.034;2024-02-21T12:21:34;15.05;;;12.65;;
55037;SDS011;40937;53.594;10.034;2024-02-21T12:24:11;16.05;;;12.60;;
55037;SDS011;40937;53.594;10.034;2024-02-21T12:26:39;16.70;;;12.20;;
55037;SDS011;40937;53.594;10.034;2024-02-21T12:29:07;17.17;;;13.15;;
55037;SDS011;40937;53.594;10.034;2024-02-21T12:31:35;12.63;;;11.43;;
55037;SDS011;40937;53.594;10.034;2024-02-21T12:34:02;15.63;;;11.85;;
55037;SDS011;40937;53.594;10.034;2024-02-21T12:36:31;12.85;;;11.57;;
55037;SDS011;40937;53.594;10.034;2024-02-21T12:38:58;15.13;;;12.27;;
55037;SDS011;40937;53.594;10.034;2024-02-21T12:41:27;14.18;;;11.70;;
55037;SDS011;40937;53.594;10.034;2024-02-21T12:43:55;16.35;;;12.50;;
55037;SDS011;40937;53.594;10.034;2024-02-21T12:46:23;13.30;;;11.82;;
55037;SDS011;40937;53.594;10.034;2024-02-21T12:48:50;13.43;;;12.02;;
55037;SDS011;40937;53.594;10.034;2024-02-21T12:51:17;18.83;;;11.93;;
55037;SDS011;40937;53.594;10.034;2024-02-21T12:53:48;15.00;;;13.05;;
55037;SDS011;40937;53.594;10.034;2024-02-21T12:56:15;20.60;;;13.05;;
55037;SDS011;40937;53.594;10.034;2024-02-21T12:58:42;19.35;;;14.25;;
55037;SDS011;40937;53.594;10.034;2024-02-21T13:01:10;18.35;;;12.82;;
55037;SDS011;40937;53.594;10.034;2024-02-21T13:03:37;16.42;;;12.75;;
55037;SDS011;40937;53.594;10.034;2024-02-21T13:06:05;23.85;;;13.82;;
55037;SDS011;40937;53.594;10.034;2024-02-21T13:08:36;18.77;;;14.00;;
55037;SDS011;40937;53.594;10.034;2024-02-21T13:11:05;21.65;;;13.30;;
55037;SDS011;40937;53.594;10.034;2024-02-21T13:13:31;22.73;;;14.68;;
55037;SDS011;40937;53.594;10.034;2024-02-21T13:15:58;16.52;;;12.38;;
55037;SDS011;40937;53.594;10.034;2024-02-21T13:18:26;22.00;;;14.98;;
55037;SDS011;40937;53.594;10.034;2024-02-21T13:20:53;15.90;;;13.60;;
55037;SDS011;40937;53.594;10.034;2024-02-21T13:23:20;18.58;;;12.77;;
55037;SDS011;40937;53.594;10.034;2024-02-21T13:25:50;20.65;;;13.45;;
55037;SDS011;40937;53.594;10.034;2024-02-21T13:28:19;19.92;;;12.82;;
55037;SDS011;40937;53.594;10.034;2024-02-21T13:30:46;20.90;;;13.15;;
55037;SDS011;40937;53.594;10.034;2024-02-21T13:33:13;22.13;;;13.63;;
55037;SDS011;40937;53.594;10.034;2024-02-21T13:35:41;20.48;;;13.40;;
55037;SDS011;40937;53.594;10.034;2024-02-21T13:38:08;20.75;;;13.07;;
55037;SDS011;40937;53.594;10.034;2024-02-21T13:40:35;25.90;;;12.70;;
55037;SDS011;40937;53.594;10.034;2024-02-21T13:43:03;18.98;;;12.43;;
55037;SDS011;40937;53.594;10.034;2024-02-21T13:45:31;20.55;;;12.85;;
55037;SDS011;40937;53.594;10.034;2024-02-21T13:47:59;20.08;;;12.50;;
55037;SDS011;40937;53.594;10.034;2024-02-21T13:50:29;22.63;;;12.95;;
55037;SDS011;40937;53.594;10.034;2024-02-21T13:52:57;18.58;;;11.32;;
55037;SDS011;40937;53.594;10.034;2024-02-21T13:55:24;18.80;;;11.57;;
55037;SDS011;40937;53.594;10.034;2024-02-21T13:57:52;18.25;;;12.52;;
55037;SDS011;40937;53.594;10.034;2024-02-21T14:00:19;17.63;;;12.38;;
55037;SDS011;40937;53.594;10.034;2024-02-21T14:02:48;21.20;;;11.23;;
55037;SDS011;40937;53.594;10.034;2024-02-21T14:05:15;20.10;;;11.55;;
55037;SDS011;40937;53.594;10.034;2024-02-21T14:07:43;19.52;;;11.88;;
55037;SDS011;40937;53.594;10.034;2024-02-21T14:10:10;16.58;;;12.50;;
55037;SDS011;40937;53.594;10.034;2024-02-21T14:12:37;12.57;;;11.27;;
55037;SDS011;40937;53.594;10.034;2024-02-21T14:15:06;17.05;;;11.13;;
55037;SDS011;40937;53.594;10.034;2024-02-21T14:17:35;17.83;;;11.93;;
55037;SDS011;40937;53.594;10.034;2024-02-21T14:20:04;16.05;;;11.35;;
55037;SDS011;40937;53.594;10.034;2024-02-21T14:22:33;19.95;;;10.90;;
55037;SDS011;40937;53.594;10.034;2024-02-21T14:25:00;19.83;;;11.73;;
55037;SDS011;40937;53.594;10.034;2024-02-21T14:27:28;14.77;;;9.75;;